NCAR-RAP Real-Time Weather Data

Output produced by METARs form (08 May 2021  16:55 UTC)
found at http://weather.rap.ucar.edu/surface/
 
KLAS 081556Z 34018G27KT 10SM CLR 26/M06 A2992 RMK AO2 PK WND 33027/1551 SLP108 T02611056 $
KLAS 081456Z 35011G25KT 10SM CLR 25/M06 A2990 RMK AO2 PK WND 36027/1440 SLP101 T02501056 51029
KLAS 081440Z 36014G27KT 10SM CLR 25/M05 A2989 RMK AO2 PK WND 36027/1440 T02501050
KLAS 081356Z 00000KT 10SM CLR 21/M03 A2988 RMK AO2 SLP095 T02061033
KLAS 081256Z 21005KT 10SM CLR 19/M04 A2984 RMK AO2 SLP082 T01941044
KLAS 081156Z 20004KT 10SM CLR 20/M04 A2981 RMK AO2 SLP071 T02001039 10256 20200 53010
KLAS 081056Z 18008KT 10SM CLR 21/M04 A2979 RMK AO2 SLP064 T02111044
KLAS 080956Z 19006KT 10SM CLR 21/M04 A2977 RMK AO2 SLP058 T02111039
KLAS 080856Z 22006KT 10SM CLR 23/M06 A2978 RMK AO2 SLP058 T02281056 55005
KLAS 080756Z 20008KT 10SM FEW150 24/M08 A2977 RMK AO2 SLP057 T02391083 403280222
KLAS 080656Z 22010KT 10SM FEW150 25/M10 A2978 RMK AO2 SLP059 T02501100
KLAS 080556Z 23007KT 10SM FEW150 26/M06 A2979 RMK AO2 SLP063 T02561056 10322 20256 53022
KLAS 080456Z 26014G23KT 10SM FEW150 27/M06 A2976 RMK AO2 SLP053 T02721056
KLAS 080356Z 23008KT 10SM FEW150 28/M05 A2973 RMK AO2 SLP042 T02831050
KLAS 080256Z 23010G19KT 10SM FEW150 29/M06 A2972 RMK AO2 SLP039 T02941061 55003
KLAS 080156Z 24016G26KT 10SM FEW120 31/M09 A2972 RMK AO2 PK WND 24029/0057 SLP039 T03061089
KLAS 080056Z 25015G26KT 10SM FEW120 32/M08 A2972 RMK AO2 PK WND 25026/0054 SLP039 T03171083
KLAS 072356Z 23013G24KT 10SM FEW120 32/M05 A2973 RMK AO2 PK WND 22028/2335 SLP043 T03221050 10328 20300 56021
KLAS 072256Z 20014G22KT 10SM FEW120 32/M04 A2974 RMK AO2 PK WND 21028/2211 SLP046 T03221039
KLAS 072156Z 23015G29KT 10SM FEW120 32/M06 A2977 RMK AO2 PK WND 22029/2154 SLP056 T03221056
KLAS 072056Z 23015G26KT 10SM FEW120 32/M05 A2980 RMK AO2 PK WND 24028/2021 SLP065 T03221050 58018
KLAS 071956Z 23013G25KT 10SM CLR 32/M05 A2982 RMK AO2 PK WND 18030/1908 SLP071 T03171050
KLAS 071856Z 19014G23KT 10SM CLR 32/M03 A2984 RMK AO2 PK WND 19027/1813 SLP078 T03171033
KLAS 071756Z 18012G22KT 10SM CLR 31/M01 A2986 RMK AO2 SLP083 T03061006 10306 20222 58005
KLAS 071744Z 18011G20KT 10SM CLR 29/M01 A2986 RMK AO2 T02941006
KLAS 071656Z 20009G18KT 10SM CLR 28/00 A2987 RMK AO2 SLP089 T02830000
KLAS 071556Z 21010G20KT 10SM CLR 27/00 A2988 RMK AO2 SLP091 T02720000
KLAS 071456Z 19009G18KT 10SM CLR 26/00 A2987 RMK AO2 SLP090 T02560000 50010 $
KLAS 071356Z 19007KT 10SM FEW200 24/M01 A2988 RMK AO2 SLP091 T02391011 $
KLAS 071256Z 20008KT 10SM FEW250 23/M02 A2985 RMK AO2 SLP081 T02331022 $
KLAS 071156Z 17005KT 10SM CLR 23/M02 A2984 RMK AO2 SLP078 T02281022 10283 20228 55004 $
KLAS 071056Z 17004KT 10SM CLR 23/M03 A2984 RMK AO2 SLP078 T02331033 $
KLAS 070956Z 17005KT 10SM CLR 24/M03 A2984 RMK AO2 SLP077 T02441033 $
KLAS 070856Z 16003KT 10SM CLR 25/M03 A2985 RMK AO2 SLP081 T02501033 58007 $
KLAS 070756Z 19006KT 10SM CLR 27/M04 A2986 RMK AO2 SLP084 T02671044 403670206 $
KLAS 070656Z 21006KT 10SM CLR 27/M03 A2987 RMK AO2 SLP087 T02721033 $
KLAS 070556Z 22005KT 10SM CLR 28/M03 A2987 RMK AO2 SLP089 T02831033 10356 20283 50010 $
KLAS 070456Z 24006KT 10SM CLR 30/M04 A2988 RMK AO2 SLP091 T03001039 $
KLAS 070356Z 20009G17KT 10SM CLR 31/M05 A2987 RMK AO2 SLP088 T03111050 $
KLAS 070256Z 21008KT 10SM FEW250 32/M05 A2984 RMK AO2 SLP080 T03221050 55002 $
KLAS 070156Z 20011G16KT 10SM FEW250 34/M06 A2984 RMK AO2 SLP080 T03391061 $
KLAS 070056Z 22008G19KT 10SM FEW250 34/M06 A2984 RMK AO2 SLP080 T03441061 $
KLAS 062356Z 24010G19KT 10SM FEW250 36/M06 A2985 RMK AO2 SLP083 T03561061 10367 20306 56023 $
KLAS 062256Z 23006G17KT 10SM SCT250 36/M06 A2986 RMK AO2 SLP086 T03561056 $
KLAS 062156Z 12009G19KT 10SM FEW250 36/M04 A2989 RMK AO2 SLP094 T03561039 $
KLAS 062056Z 12012G20KT 10SM FEW250 34/M04 A2992 RMK AO2 SLP105 T03441039 58029 $
KLAS 061956Z 09011G22KT 10SM FEW250 34/M04 A2995 RMK AO2 SLP115 T03441044 $
KLAS 061856Z 08009KT 10SM FEW250 32/M04 A2999 RMK AO2 SLP129 T03221039 $
KLAS 061756Z 10006KT 10SM CLR 31/M03 A3001 RMK AO2 SLP137 T03111033 10311 20206 58004 $
KLAS 061656Z 03005KT 10SM CLR 29/M04 A3002 RMK AO2 SLP139 T02891039 $